Fond du Lac, WI

10:05 AM CDT on August 27, 2016 (GMT -0500)
Hunters Grove | | Change Station

Elev 764 ft 43.79 °N, 88.39 °W | Updated 14 minutes ago

Heavy Rain
Heavy Rain Mist
61.3 °F
Feels Like 61.3 °F
N
7.4
Wind Variable Wind from NE

Today
High -- | Low -- °F
--% Chance of Precip.
Yesterday
High -- | Low -- °F
Precip. -- in
Pressure 30.10 in
Visibility 2.0 miles
Clouds Mostly Cloudy 800 ft
Overcast 2300 ft
Dew Point 59 °F
Humidity 92%
Rainfall 1.09 in
Snow Depth Not available.
6:11 AM 7:36 PM
Waning Crescent, 24% visible
METAR KFLD 271453Z AUTO 08007KT 2SM +RA BR BKN008 OVC023 17/16 A3010 RMK AO2 CIG 006V012 SLP193 P0010 60044 T01670156 56009
Pressure 30.10 in
Visibility 2.0 miles
Clouds Mostly Cloudy 800 ft
Overcast 2300 ft
Dew Point 59 °F
Humidity 92%
Rainfall 1.09 in
Snow Depth Not available.
6:11 AM 7:36 PM
Waning Crescent, 24% visible
METAR KFLD 271453Z AUTO 08007KT 2SM +RA BR BKN008 OVC023 17/16 A3010 RMK AO2 CIG 006V012 SLP193 P0010 60044 T01670156 56009

10-Day Weather Forecast

Almanac

Astronomy

Aug. 27, 2016 Rise Set
Actual Time
Civil Twilight
Nautical Twilight
Astronomical Twilight
Moon
Length of Visible Light
Length of Day
Tomorrow will be .
, % of the Moon is Illuminated

Today's Extremes

State Highs State Lows

Community

WunderPhotos

Upload Photos

1,935,354 photos uploaded!

WunderBlog® & News

Nearby

Air Quality

  Air Quality AQ Index Pollutant
Not available.

Snow Depth

Station Depth Elevation

Earthquake Activity

City Distance Mag. Time & Date
Minimum magnitude displayed is 2.5.

Coastal Water Temperatures

Place Temperature

Stations

Nearby Weather Stations

Station Location Temp. Windchill Dew Point Humidity Wind Precip. Elev Updated Type
                   

Watches & Warnings

There are currently no watches in effect.